Time;durP1;ratioP1;P1;durP2;ratioP2;P2;SDS_P1;SDS_P2;PMS_P1;PMS_P2;Temp;Humidity;BMP_temperature;BMP_pressure;BME280_temperature;BME280_humidity;BME280_pressure;Samples;Min_cycle;Max_cycle;Signal;HPM_P1;HPM_P2
2023/06/11 00:00:47;;;;;;;5.20;4.80;;;25.00;54.00;;;;;;5073938;28;20729;-68
2023/06/11 00:03:13;;;;;;;5.28;4.90;;;24.90;53.90;;;;;;5073288;28;20181;-68
2023/06/11 00:05:38;;;;;;;5.40;4.93;;;24.90;54.00;;;;;;5073316;28;20540;-68
2023/06/11 00:08:04;;;;;;;6.43;4.68;;;24.90;54.00;;;;;;5074061;28;20257;-67
2023/06/11 00:10:29;;;;;;;6.07;5.50;;;24.90;54.00;;;;;;5073479;28;20257;-66
2023/06/11 00:12:55;;;;;;;5.43;4.97;;;24.90;54.10;;;;;;5073140;28;20162;-66
2023/06/11 00:15:21;;;;;;;5.32;4.82;;;24.90;54.00;;;;;;5073495;28;20174;-66
2023/06/11 00:17:47;;;;;;;5.97;5.50;;;24.90;54.10;;;;;;5073018;28;20178;-66
2023/06/11 00:20:13;;;;;;;5.60;5.20;;;24.90;54.10;;;;;;5072374;28;20304;-66
2023/06/11 00:22:39;;;;;;;4.78;4.38;;;24.90;54.00;;;;;;5073633;28;20301;-66
2023/06/11 00:25:06;;;;;;;5.50;5.07;;;24.90;54.10;;;;;;5073209;28;20267;-65
2023/06/11 00:27:33;;;;;;;5.68;5.18;;;24.90;54.10;;;;;;5073525;28;20324;-66
2023/06/11 00:30:03;;;;;;;5.53;5.03;;;24.90;54.10;;;;;;5073145;28;20210;-65
2023/06/11 00:32:29;;;;;;;5.90;5.40;;;24.90;54.00;;;;;;5071926;28;20269;-68
2023/06/11 00:34:54;;;;;;;5.30;4.80;;;24.90;54.10;;;;;;5073612;28;20249;-68
2023/06/11 00:37:20;;;;;;;5.47;5.07;;;24.90;54.10;;;;;;5073042;28;20175;-68
2023/06/11 00:39:45;;;;;;;5.45;5.05;;;24.80;54.10;;;;;;5072539;28;20237;-68
2023/06/11 00:42:12;;;;;;;6.35;5.85;;;24.90;54.20;;;;;;5073259;28;20221;-66
2023/06/11 00:44:39;;;;;;;5.10;4.70;;;24.90;54.10;;;;;;5073315;28;20167;-66
2023/06/11 00:47:06;;;;;;;5.38;4.90;;;24.80;54.10;;;;;;5072061;28;20604;-67
2023/06/11 00:49:31;;;;;;;5.57;5.18;;;24.90;54.20;;;;;;5071221;28;20210;-66
2023/06/11 00:51:57;;;;;;;6.10;5.50;;;24.80;54.20;;;;;;5072013;28;20209;-65
2023/06/11 00:54:22;;;;;;;5.20;4.80;;;24.90;54.20;;;;;;5072057;28;20178;-66
2023/06/11 00:56:48;;;;;;;5.90;5.40;;;24.80;54.20;;;;;;5071795;28;20185;-67
2023/06/11 00:59:15;;;;;;;5.57;5.10;;;24.80;54.10;;;;;;5071683;28;20173;-67
2023/06/11 01:02:07;;;;;;;5.88;5.47;;;24.90;54.20;;;;;;5070371;28;20228;-67
2023/06/11 01:04:33;;;;;;;5.68;5.28;;;24.90;54.20;;;;;;5068710;28;20190;-67
2023/06/11 01:07:00;;;;;;;5.65;5.20;;;24.80;54.20;;;;;;5071447;28;20649;-67
2023/06/11 01:09:26;;;;;;;5.68;5.28;;;24.90;54.20;;;;;;5072026;28;20185;-66
2023/06/11 01:11:54;;;;;;;5.38;4.88;;;24.80;54.20;;;;;;5054213;28;20261;-66
2023/06/11 01:14:20;;;;;;;5.78;5.28;;;24.80;54.10;;;;;;5070604;28;20625;-66
2023/06/11 01:16:48;;;;;;;5.47;4.97;;;24.80;54.20;;;;;;5072361;28;20186;-67
2023/06/11 01:19:55;;;;;;;5.72;5.22;;;24.80;54.20;;;;;;5071425;28;20175;-66
2023/06/11 01:22:33;;;;;;;5.80;5.40;;;24.80;54.10;;;;;;5063943;28;20221;-66
2023/06/11 01:25:20;;;;;;;5.88;5.38;;;24.80;54.30;;;;;;5072556;28;20178;-66
2023/06/11 01:28:16;;;;;;;6.15;5.35;;;24.80;54.30;;;;;;5072875;28;20178;-66
2023/06/11 01:30:45;;;;;;;5.25;4.88;;;24.80;54.20;;;;;;5072871;28;20200;-66
2023/06/11 01:33:10;;;;;;;5.32;4.82;;;24.80;54.20;;;;;;5072135;28;20533;-67
2023/06/11 01:35:36;;;;;;;5.18;4.78;;;24.80;54.30;;;;;;5070148;28;20174;-68
2023/06/11 01:38:02;;;;;;;6.20;5.70;;;24.80;54.20;;;;;;5072089;28;20179;-66
2023/06/11 01:40:27;;;;;;;6.20;5.70;;;24.80;54.20;;;;;;5071985;28;20269;-67
2023/06/11 01:42:53;;;;;;;5.38;4.97;;;24.80;54.20;;;;;;5071595;28;20237;-66
2023/06/11 01:45:19;;;;;;;5.38;4.93;;;24.80;54.40;;;;;;5072459;28;20202;-67
2023/06/11 01:47:45;;;;;;;5.78;5.35;;;24.80;54.30;;;;;;5072704;28;20198;-66
2023/06/11 01:50:14;;;;;;;6.20;5.70;;;24.80;54.20;;;;;;5071653;28;20174;-66
2023/06/11 01:52:40;;;;;;;6.07;5.57;;;24.80;54.20;;;;;;5072746;28;20228;-66
2023/06/11 01:55:08;;;;;;;6.00;5.57;;;24.70;54.30;;;;;;5072260;28;20174;-66
2023/06/11 01:57:34;;;;;;;5.82;5.40;;;24.70;54.20;;;;;;5051632;28;20225;-67
2023/06/11 02:00:00;;;;;;;5.80;5.40;;;24.80;54.20;;;;;;5052750;28;20179;-68
2023/06/11 02:02:27;;;;;;;5.53;5.13;;;24.80;54.30;;;;;;5052107;28;20218;-68
2023/06/11 02:04:52;;;;;;;5.45;5.05;;;24.70;54.20;;;;;;5051773;28;20195;-67
2023/06/11 02:07:18;;;;;;;5.80;5.40;;;24.70;54.20;;;;;;5051928;28;20573;-67
2023/06/11 02:09:43;;;;;;;6.25;5.75;;;24.70;54.30;;;;;;5051905;28;20224;-66
2023/06/11 02:12:09;;;;;;;6.55;5.95;;;24.80;54.40;;;;;;5050870;28;20258;-66
2023/06/11 02:14:35;;;;;;;5.53;5.13;;;24.70;54.30;;;;;;5052163;28;20622;-66
2023/06/11 02:17:00;;;;;;;6.28;5.78;;;24.70;54.30;;;;;;5068631;28;20179;-66
2023/06/11 02:19:26;;;;;;;5.60;5.20;;;24.70;54.30;;;;;;5071228;28;20178;-66
2023/06/11 02:21:51;;;;;;;5.72;5.25;;;24.80;54.40;;;;;;5072209;28;20206;-66
2023/06/11 02:24:17;;;;;;;6.40;5.80;;;24.70;54.30;;;;;;5071369;28;20181;-65
2023/06/11 02:26:42;;;;;;;5.97;5.47;;;24.70;54.30;;;;;;5072068;28;20167;-65
2023/06/11 02:29:08;;;;;;;6.72;6.10;;;24.70;54.30;;;;;;5072122;28;20178;-66
2023/06/11 02:31:33;;;;;;;6.28;5.68;;;24.70;54.30;;;;;;5071400;28;20171;-67
2023/06/11 02:33:59;;;;;;;5.78;5.28;;;24.70;54.30;;;;;;5072171;28;20568;-68
2023/06/11 02:36:24;;;;;;;5.63;5.22;;;24.70;54.30;;;;;;5071700;28;20174;-68
2023/06/11 02:38:50;;;;;;;6.15;5.65;;;24.70;54.20;;;;;;5070428;28;20226;-66
2023/06/11 02:41:16;;;;;;;5.90;5.50;;;24.70;54.30;;;;;;5071487;28;20195;-67
2023/06/11 02:43:41;;;;;;;5.75;5.35;;;24.70;54.30;;;;;;5073008;28;20174;-66
2023/06/11 02:46:07;;;;;;;5.60;5.20;;;24.60;54.20;;;;;;5074849;28;20170;-67
2023/06/11 02:48:32;;;;;;;5.80;5.30;;;24.60;54.20;;;;;;5074916;28;20234;-67
2023/06/11 02:50:58;;;;;;;5.45;5.05;;;24.70;54.30;;;;;;5075626;28;20586;-67
2023/06/11 02:53:23;;;;;;;5.63;5.22;;;24.70;54.20;;;;;;5074403;28;20641;-67
2023/06/11 02:55:49;;;;;;;5.78;5.38;;;24.70;54.30;;;;;;5075200;28;20178;-66
2023/06/11 02:58:15;;;;;;;5.72;5.30;;;24.70;54.30;;;;;;5074944;28;20197;-67
2023/06/11 03:00:40;;;;;;;5.50;5.10;;;24.60;54.30;;;;;;5074039;28;20224;-68
2023/06/11 03:03:06;;;;;;;5.93;5.53;;;24.60;54.80;;;;;;5075345;28;20191;-67
2023/06/11 03:05:31;;;;;;;5.30;4.90;;;24.60;54.20;;;;;;5074949;28;20213;-67
2023/06/11 03:07:57;;;;;;;6.30;5.80;;;24.60;54.10;;;;;;5073434;28;20186;-66
2023/06/11 03:10:23;;;;;;;5.57;5.18;;;24.60;54.30;;;;;;5074207;28;20179;-66
2023/06/11 03:12:49;;;;;;;5.50;5.10;;;24.60;54.10;;;;;;5075253;28;20176;-66
2023/06/11 03:15:14;;;;;;;6.03;5.53;;;24.60;54.20;;;;;;5074174;28;20261;-66
2023/06/11 03:17:40;;;;;;;6.00;5.50;;;24.60;54.10;;;;;;5074888;28;20258;-67
2023/06/11 03:20:06;;;;;;;6.18;5.78;;;24.60;54.20;;;;;;5074830;28;20182;-65
2023/06/11 03:22:31;;;;;;;5.80;5.20;;;24.60;54.10;;;;;;5073879;28;20210;-66
2023/06/11 03:24:57;;;;;;;5.85;5.45;;;24.60;54.10;;;;;;5073724;28;20167;-65
2023/06/11 03:27:23;;;;;;;6.10;5.60;;;24.60;54.10;;;;;;5073936;28;20179;-66
2023/06/11 03:29:48;;;;;;;5.78;5.28;;;24.60;54.10;;;;;;5074041;28;20174;-66
2023/06/11 03:32:14;;;;;;;5.88;5.47;;;24.60;54.10;;;;;;5073883;28;20177;-67
2023/06/11 03:34:39;;;;;;;6.35;5.85;;;24.60;54.00;;;;;;5073843;28;20173;-68
2023/06/11 03:37:05;;;;;;;6.10;5.60;;;24.60;54.20;;;;;;5074719;28;20262;-67
2023/06/11 03:39:30;;;;;;;5.75;5.35;;;24.60;54.00;;;;;;5073990;28;20237;-67
2023/06/11 03:41:56;;;;;;;6.25;5.75;;;24.60;54.10;;;;;;5073903;28;20210;-67
2023/06/11 03:44:21;;;;;;;5.97;5.57;;;24.60;54.00;;;;;;5074001;28;20167;-66
2023/06/11 03:46:47;;;;;;;6.18;5.68;;;24.60;54.00;;;;;;5074582;28;20178;-67
2023/06/11 03:49:13;;;;;;;5.53;5.13;;;24.60;54.00;;;;;;5073411;28;20197;-66
2023/06/11 03:51:38;;;;;;;5.70;5.20;;;24.60;54.00;;;;;;5074297;28;20253;-67
2023/06/11 03:54:04;;;;;;;5.88;5.47;;;24.60;54.00;;;;;;5073069;28;20167;-66
2023/06/11 03:56:29;;;;;;;5.75;5.25;;;24.60;53.90;;;;;;5072117;28;20182;-66
2023/06/11 03:58:55;;;;;;;6.05;5.55;;;24.60;54.00;;;;;;5073955;28;20265;-66
2023/06/11 04:01:20;;;;;;;5.72;5.32;;;24.60;53.90;;;;;;5073179;28;20209;-67
2023/06/11 04:03:46;;;;;;;6.13;5.72;;;24.60;53.90;;;;;;5072973;28;20177;-68
2023/06/11 04:06:11;;;;;;;6.07;5.57;;;24.60;53.90;;;;;;5073480;28;20185;-67
2023/06/11 04:08:38;;;;;;;5.13;4.82;;;24.60;53.80;;;;;;5073747;28;20194;-66
2023/06/11 04:11:03;;;;;;;6.07;5.57;;;24.60;53.80;;;;;;5073478;28;20186;-66
2023/06/11 04:13:29;;;;;;;6.05;5.63;;;24.60;53.80;;;;;;5073013;28;20227;-66
2023/06/11 04:15:54;;;;;;;5.88;5.47;;;24.60;53.70;;;;;;5073978;28;20171;-66
2023/06/11 04:18:20;;;;;;;5.70;5.30;;;24.60;53.70;;;;;;5072464;28;20190;-66
2023/06/11 04:20:45;;;;;;;5.85;5.45;;;24.60;53.70;;;;;;5073542;28;20171;-66
2023/06/11 04:23:11;;;;;;;5.78;5.32;;;24.60;53.70;;;;;;5073187;28;20179;-65
2023/06/11 04:25:39;;;;;;;6.30;5.45;;;24.60;53.70;;;;;;5072387;28;20744;-65
2023/06/11 04:28:05;;;;;;;5.90;5.40;;;24.60;53.70;;;;;;5073780;28;20253;-65
2023/06/11 04:30:31;;;;;;;6.32;5.82;;;24.60;53.80;;;;;;5073199;28;20253;-67
2023/06/11 04:32:57;;;;;;;6.28;5.82;;;24.60;53.70;;;;;;5072854;28;20209;-67
2023/06/11 04:35:25;;;;;;;5.68;5.28;;;24.70;53.70;;;;;;5072750;28;20634;-68
2023/06/11 04:37:50;;;;;;;5.90;5.50;;;24.60;53.70;;;;;;5072820;28;20181;-67
2023/06/11 04:40:18;;;;;;;5.63;5.22;;;24.60;53.60;;;;;;5072239;28;20170;-66
2023/06/11 04:42:44;;;;;;;5.97;5.57;;;24.60;53.60;;;;;;5072227;28;20677;-67
2023/06/11 04:45:10;;;;;;;5.80;5.30;;;24.60;53.60;;;;;;5072497;28;20185;-66
2023/06/11 04:47:36;;;;;;;6.43;5.82;;;24.60;53.50;;;;;;5073258;28;20185;-66
2023/06/11 04:50:05;;;;;;;5.85;5.45;;;24.60;53.50;;;;;;5073298;28;20171;-66
2023/06/11 04:52:42;;;;;;;6.45;5.82;;;24.70;53.60;;;;;;5072247;28;20293;-66
2023/06/11 04:55:09;;;;;;;5.72;5.32;;;24.70;53.70;;;;;;5072129;28;20210;-66
2023/06/11 04:57:36;;;;;;;5.63;5.22;;;24.60;53.50;;;;;;5072638;28;20202;-66
2023/06/11 05:00:08;;;;;;;5.65;5.25;;;24.70;53.50;;;;;;5072420;28;20178;-66
2023/06/11 05:02:37;;;;;;;5.80;5.40;;;24.70;53.50;;;;;;5073075;28;20214;-68
2023/06/11 05:05:04;;;;;;;5.25;4.85;;;24.60;53.50;;;;;;5073032;28;20547;-67
2023/06/11 05:07:30;;;;;;;6.20;5.70;;;24.70;53.50;;;;;;5071389;28;20186;-67
2023/06/11 05:09:55;;;;;;;6.35;5.85;;;24.70;53.50;;;;;;5072626;28;20265;-65
2023/06/11 05:12:21;;;;;;;5.88;5.47;;;24.70;53.50;;;;;;5072261;28;20584;-66
2023/06/11 05:14:46;;;;;;;5.13;4.72;;;24.70;53.40;;;;;;5071983;28;20582;-66
2023/06/11 05:17:12;;;;;;;5.65;5.20;;;24.70;53.60;;;;;;5072553;28;20228;-65
2023/06/11 05:19:38;;;;;;;6.10;5.70;;;24.70;53.60;;;;;;5072110;28;20174;-65
2023/06/11 05:22:04;;;;;;;5.57;5.18;;;24.70;53.70;;;;;;5071324;28;20251;-64
2023/06/11 05:24:30;;;;;;;5.72;5.32;;;24.70;53.80;;;;;;5072223;28;20178;-64
2023/06/11 05:26:56;;;;;;;5.80;5.40;;;24.70;53.80;;;;;;5072439;28;20170;-65
2023/06/11 05:29:22;;;;;;;5.35;4.95;;;24.70;53.90;;;;;;5071833;28;20177;-65
2023/06/11 05:31:48;;;;;;;6.22;5.72;;;24.70;53.80;;;;;;5072473;28;20329;-67
2023/06/11 05:34:13;;;;;;;5.63;5.22;;;24.70;53.80;;;;;;5071636;28;20265;-67
2023/06/11 05:36:39;;;;;;;6.45;5.95;;;24.70;53.80;;;;;;5072556;28;20178;-67
2023/06/11 05:39:04;;;;;;;5.70;5.30;;;24.80;53.90;;;;;;5072455;28;20222;-66
2023/06/11 05:41:30;;;;;;;5.75;5.25;;;24.70;53.70;;;;;;5071679;28;20642;-66
2023/06/11 05:43:56;;;;;;;6.20;5.70;;;24.70;53.80;;;;;;5072729;28;20224;-65
2023/06/11 05:46:24;;;;;;;5.82;5.35;;;24.80;53.80;;;;;;5072171;28;20170;-66
2023/06/11 05:48:49;;;;;;;6.00;5.60;;;24.70;53.70;;;;;;5071498;28;20175;-65
2023/06/11 05:51:15;;;;;;;6.05;5.63;;;24.70;53.70;;;;;;5072279;28;20174;-65
2023/06/11 05:53:40;;;;;;;5.78;5.38;;;24.80;53.80;;;;;;5072745;28;20186;-65
2023/06/11 05:56:06;;;;;;;5.55;5.15;;;24.80;53.80;;;;;;5071851;28;20162;-65
2023/06/11 05:58:32;;;;;;;6.15;5.65;;;24.80;53.80;;;;;;5072403;28;20178;-66
2023/06/11 06:01:02;;;;;;;6.03;5.63;;;24.70;53.70;;;;;;5072239;28;20175;-67
2023/06/11 06:03:31;;;;;;;4.97;4.68;;;24.80;53.80;;;;;;5071096;28;20182;-67
2023/06/11 06:05:58;;;;;;;5.95;5.55;;;24.80;53.70;;;;;;5072591;28;20249;-66
2023/06/11 06:08:25;;;;;;;6.05;5.57;;;24.80;53.80;;;;;;5072164;28;20179;-66
2023/06/11 06:10:50;;;;;;;5.68;5.28;;;24.70;53.70;;;;;;5070473;28;20213;-66
2023/06/11 06:13:16;;;;;;;5.13;4.82;;;24.80;53.80;;;;;;5072064;28;20206;-65
2023/06/11 06:15:42;;;;;;;5.35;4.95;;;24.80;53.80;;;;;;5072133;28;20201;-65
2023/06/11 06:18:08;;;;;;;5.68;5.18;;;24.80;53.80;;;;;;5071378;28;20175;-64
2023/06/11 06:20:33;;;;;;;5.60;5.20;;;24.80;53.80;;;;;;5075785;28;20178;-66
2023/06/11 06:22:59;;;;;;;6.22;5.75;;;24.80;53.80;;;;;;5075799;28;20218;-65
2023/06/11 06:25:25;;;;;;;5.45;5.05;;;24.80;53.80;;;;;;5075035;28;20175;-64
2023/06/11 06:27:51;;;;;;;5.50;5.10;;;24.80;53.80;;;;;;5075915;28;20170;-65
2023/06/11 06:30:17;;;;;;;5.80;5.40;;;24.80;53.80;;;;;;5075451;28;20159;-66
2023/06/11 06:32:43;;;;;;;6.05;5.55;;;24.80;53.90;;;;;;5075076;28;20221;-67
2023/06/11 06:35:08;;;;;;;5.53;5.13;;;24.80;53.90;;;;;;5075471;28;20288;-68
2023/06/11 06:37:34;;;;;;;5.38;5.05;;;24.80;53.90;;;;;;5073949;28;20217;-67
2023/06/11 06:40:00;;;;;;;6.30;5.72;;;24.80;53.90;;;;;;5075429;28;20279;-66
2023/06/11 06:42:25;;;;;;;5.45;5.05;;;24.80;53.90;;;;;;5075219;28;20214;-66
2023/06/11 06:44:51;;;;;;;5.97;5.57;;;24.80;53.90;;;;;;5074877;28;20170;-65
2023/06/11 06:47:16;;;;;;;5.80;5.40;;;24.80;53.90;;;;;;5075360;28;20174;-66
2023/06/11 06:49:42;;;;;;;5.97;5.57;;;24.80;53.80;;;;;;5075149;28;20177;-66
2023/06/11 06:52:09;;;;;;;5.90;5.50;;;24.80;53.80;;;;;;5074405;28;20174;-65
2023/06/11 06:54:35;;;;;;;5.88;5.47;;;24.90;53.80;;;;;;5075309;28;20603;-66
2023/06/11 06:57:00;;;;;;;6.15;5.60;;;24.90;53.80;;;;;;5075412;28;20213;-66
2023/06/11 06:59:26;;;;;;;6.22;5.72;;;24.80;53.70;;;;;;5074241;28;20261;-67
2023/06/11 07:01:51;;;;;;;5.75;5.25;;;24.80;53.70;;;;;;5074452;28;20244;-67
2023/06/11 07:04:17;;;;;;;6.07;5.57;;;24.90;53.70;;;;;;5072897;28;20178;-67
2023/06/11 07:06:43;;;;;;;5.93;5.35;;;24.90;53.60;;;;;;5074218;28;20178;-67
2023/06/11 07:09:08;;;;;;;6.07;5.65;;;24.90;53.60;;;;;;5073882;28;20174;-66
2023/06/11 07:11:34;;;;;;;6.53;5.95;;;24.90;53.50;;;;;;5075091;28;20517;-66
2023/06/11 07:14:00;;;;;;;6.40;5.90;;;24.90;53.50;;;;;;5074206;28;20166;-65
2023/06/11 07:16:25;;;;;;;5.80;5.40;;;24.90;53.60;;;;;;5074533;28;20181;-66
2023/06/11 07:18:51;;;;;;;5.63;5.22;;;24.90;53.50;;;;;;5075358;28;20243;-65
2023/06/11 07:21:17;;;;;;;5.85;5.45;;;25.00;53.50;;;;;;5073982;28;20660;-65
2023/06/11 07:23:42;;;;;;;6.03;5.53;;;25.00;53.50;;;;;;5075192;28;20170;-65
2023/06/11 07:26:10;;;;;;;6.20;5.80;;;25.00;53.50;;;;;;5074708;28;20526;-64
2023/06/11 07:28:35;;;;;;;6.05;5.63;;;25.00;53.50;;;;;;5073726;28;20179;-66
2023/06/11 07:31:01;;;;;;;6.00;5.50;;;25.00;53.50;;;;;;5074463;28;20174;-66
2023/06/11 07:33:26;;;;;;;5.65;5.25;;;25.00;53.50;;;;;;5074175;28;20182;-68
2023/06/11 07:35:54;;;;;;;6.30;5.70;;;25.00;53.50;;;;;;5074092;28;20193;-68
2023/06/11 07:38:20;;;;;;;6.05;5.55;;;25.00;53.50;;;;;;5074217;28;20222;-66
2023/06/11 07:40:46;;;;;;;5.55;5.15;;;25.00;53.50;;;;;;5073963;28;20662;-67
2023/06/11 07:43:11;;;;;;;5.75;5.35;;;25.00;53.40;;;;;;5073715;28;20273;-65
2023/06/11 07:45:37;;;;;;;5.70;5.30;;;25.10;53.50;;;;;;5074205;28;20182;-66
2023/06/11 07:48:02;;;;;;;5.65;5.25;;;25.00;53.50;;;;;;5073880;28;20181;-66
2023/06/11 07:50:28;;;;;;;5.38;4.93;;;25.10;53.50;;;;;;5074245;28;20194;-66
2023/06/11 07:52:53;;;;;;;5.65;5.10;;;25.00;53.50;;;;;;5074338;28;20202;-66
2023/06/11 07:55:19;;;;;;;5.68;5.28;;;25.10;53.50;;;;;;5072934;28;20190;-66
2023/06/11 07:57:44;;;;;;;5.82;5.43;;;25.10;53.50;;;;;;5074155;28;20174;-67
2023/06/11 08:00:12;;;;;;;5.55;5.15;;;25.10;53.50;;;;;;5073815;28;20514;-67
2023/06/11 08:02:41;;;;;;;5.47;5.07;;;25.10;53.50;;;;;;5073015;28;20252;-67
2023/06/11 08:05:07;;;;;;;5.55;5.13;;;25.10;53.50;;;;;;5073811;28;20175;-66
2023/06/11 08:07:32;;;;;;;5.70;5.20;;;25.10;53.50;;;;;;5074109;28;20303;-67
2023/06/11 08:09:58;;;;;;;5.60;5.22;;;25.20;53.60;;;;;;5073206;28;20195;-65
2023/06/11 08:12:23;;;;;;;5.43;5.10;;;25.20;53.60;;;;;;5073523;28;20175;-66
2023/06/11 08:14:50;;;;;;;5.72;5.32;;;25.20;53.60;;;;;;5074294;28;20292;-65
2023/06/11 08:17:16;;;;;;;5.88;5.38;;;25.20;53.50;;;;;;5072846;28;20185;-66
2023/06/11 08:19:44;;;;;;;5.68;5.18;;;25.20;53.60;;;;;;5073498;28;20654;-65
2023/06/11 08:22:10;;;;;;;5.78;5.38;;;25.20;53.50;;;;;;5073330;28;20794;-65
2023/06/11 08:24:35;;;;;;;5.30;5.00;;;25.20;53.50;;;;;;5072907;28;20174;-65
2023/06/11 08:27:02;;;;;;;6.20;5.60;;;25.20;53.50;;;;;;5073685;28;20174;-65
2023/06/11 08:29:28;;;;;;;5.93;5.45;;;25.20;53.50;;;;;;5072206;28;20178;-66
2023/06/11 08:31:53;;;;;;;5.43;5.10;;;25.20;53.50;;;;;;5072753;28;20236;-67
2023/06/11 08:34:21;;;;;;;5.15;4.72;;;25.30;53.50;;;;;;5073255;28;20175;-67
2023/06/11 08:36:47;;;;;;;5.60;5.20;;;25.20;53.50;;;;;;5073559;28;20178;-68
2023/06/11 08:39:13;;;;;;;5.88;5.38;;;25.30;53.50;;;;;;5072625;28;20564;-66
2023/06/11 08:41:41;;;;;;;5.82;5.28;;;25.30;53.50;;;;;;5072606;28;20206;-66
2023/06/11 08:44:06;;;;;;;5.47;5.07;;;25.30;53.50;;;;;;5072545;28;20190;-65
2023/06/11 08:46:35;;;;;;;6.15;5.60;;;25.40;53.50;;;;;;5073366;28;20178;-66
2023/06/11 08:49:05;;;;;;;5.15;4.85;;;25.30;53.50;;;;;;5073376;28;20181;-65
2023/06/11 08:51:37;;;;;;;5.93;5.50;;;25.40;53.50;;;;;;5072408;28;20213;-65
2023/06/11 08:54:06;;;;;;;5.63;5.22;;;25.40;53.50;;;;;;5073177;28;20181;-65
2023/06/11 08:56:32;;;;;;;5.10;4.80;;;25.40;53.50;;;;;;5073231;28;20174;-66
2023/06/11 08:59:01;;;;;;;5.80;5.40;;;25.40;53.50;;;;;;5072646;28;20272;-66
2023/06/11 09:01:26;;;;;;;5.95;5.45;;;25.40;53.50;;;;;;5071462;28;20259;-67
2023/06/11 09:03:52;;;;;;;5.97;5.47;;;25.40;53.50;;;;;;5072569;28;20579;-66
2023/06/11 09:06:18;;;;;;;5.53;5.13;;;25.50;53.50;;;;;;5072166;28;20173;-66
2023/06/11 09:08:54;;;;;;;5.85;5.43;;;25.40;53.40;;;;;;5072877;28;20279;-66
2023/06/11 09:11:20;;;;;;;5.35;4.85;;;25.50;53.50;;;;;;5072860;28;20178;-65
2023/06/11 09:13:45;;;;;;;6.18;5.68;;;25.50;53.40;;;;;;5072373;28;20173;-65
2023/06/11 09:16:11;;;;;;;5.60;5.20;;;25.50;53.50;;;;;;5072654;28;20178;-65
2023/06/11 09:18:36;;;;;;;5.60;5.20;;;25.50;53.40;;;;;;5072875;28;20570;-66
2023/06/11 09:21:02;;;;;;;6.03;5.63;;;25.60;53.50;;;;;;5072062;28;20185;-65
2023/06/11 09:23:34;;;;;;;5.57;5.18;;;25.60;53.50;;;;;;5072501;28;20182;-65
2023/06/11 09:26:00;;;;;;;5.85;5.40;;;25.60;53.50;;;;;;5071525;28;20535;-65
2023/06/11 09:28:33;;;;;;;5.57;5.07;;;25.60;53.50;;;;;;5071915;28;20248;-65
2023/06/11 09:30:59;;;;;;;5.63;5.13;;;25.60;53.40;;;;;;5072946;28;20174;-67
2023/06/11 09:33:26;;;;;;;5.40;5.00;;;25.60;53.40;;;;;;5071312;28;20171;-68
2023/06/11 09:35:52;;;;;;;5.68;5.13;;;25.60;54.10;;;;;;5072653;28;20645;-67
2023/06/11 09:38:18;;;;;;;5.30;4.90;;;25.60;53.40;;;;;;5072362;28;20225;-67
2023/06/11 09:40:46;;;;;;;5.97;5.57;;;25.70;53.40;;;;;;5072109;28;20170;-66
2023/06/11 09:43:13;;;;;;;5.10;4.80;;;25.60;53.40;;;;;;5072166;28;20287;-65
2023/06/11 09:45:38;;;;;;;6.13;5.63;;;25.60;53.40;;;;;;5072581;28;20181;-66
2023/06/11 09:48:04;;;;;;;5.43;5.03;;;25.70;53.40;;;;;;5071746;28;20541;-66
2023/06/11 09:50:30;;;;;;;5.53;5.03;;;25.70;53.40;;;;;;5070993;28;20175;-66
2023/06/11 09:52:56;;;;;;;5.70;5.25;;;25.70;53.40;;;;;;5056011;28;20541;-66
2023/06/11 09:55:25;;;;;;;5.70;5.30;;;25.80;53.50;;;;;;5074340;28;20633;-66
2023/06/11 09:57:51;;;;;;;5.90;5.40;;;25.80;53.50;;;;;;5075155;28;20660;-67
2023/06/11 10:00:18;;;;;;;4.95;4.65;;;25.80;53.50;;;;;;5074687;28;20272;-67
2023/06/11 10:02:44;;;;;;;5.55;5.15;;;25.80;53.50;;;;;;5074006;28;20570;-67
2023/06/11 10:05:10;;;;;;;5.70;5.30;;;25.80;53.40;;;;;;5076081;28;20170;-66
2023/06/11 10:07:47;;;;;;;6.13;5.63;;;25.80;53.40;;;;;;5076455;28;20179;-67
2023/06/11 10:10:15;;;;;;;5.97;5.53;;;25.80;53.40;;;;;;5074022;28;20201;-66
2023/06/11 10:12:40;;;;;;;5.78;5.38;;;25.80;53.50;;;;;;5075260;28;20198;-65
2023/06/11 10:15:10;;;;;;;8.48;5.80;;;25.80;53.50;;;;;;5074245;28;20213;-64
2023/06/11 10:17:35;;;;;;;6.05;5.50;;;25.90;53.60;;;;;;5075340;28;20186;-65
2023/06/11 10:20:01;;;;;;;7.15;5.85;;;25.90;53.90;;;;;;5074632;28;20178;-65
2023/06/11 10:22:33;;;;;;;6.97;5.97;;;25.90;53.90;;;;;;5075706;28;20218;-66
2023/06/11 10:25:00;;;;;;;6.97;6.13;;;26.00;54.00;;;;;;5076034;28;20178;-62
2023/06/11 10:27:34;;;;;;;9.20;6.05;;;26.00;54.10;;;;;;5075668;28;20174;-66
2023/06/11 10:29:59;;;;;;;8.48;7.28;;;26.00;54.50;;;;;;5074910;28;20182;-66
2023/06/11 10:32:25;;;;;;;7.53;6.88;;;26.00;54.80;;;;;;5075656;28;20233;-68
2023/06/11 10:35:03;;;;;;;9.95;8.50;;;26.00;55.10;;;;;;5075881;28;20170;-69
2023/06/11 10:37:28;;;;;;;10.10;8.73;;;26.10;55.20;;;;;;5074768;28;20257;-68
2023/06/11 10:39:54;;;;;;;11.30;10.27;;;26.10;55.50;;;;;;5075138;28;20325;-70
2023/06/11 10:42:23;;;;;;;12.73;10.18;;;26.10;55.70;;;;;;5074934;28;20692;-70
2023/06/11 10:44:49;;;;;;;12.23;11.13;;;26.20;55.80;;;;;;5074303;28;20214;-68
2023/06/11 10:47:15;;;;;;;11.43;10.38;;;26.20;55.90;;;;;;5075248;28;20175;-69
2023/06/11 10:49:40;;;;;;;12.35;9.50;;;26.30;56.00;;;;;;5074775;28;20178;-67
2023/06/11 10:52:06;;;;;;;11.65;9.85;;;26.30;56.10;;;;;;5073724;28;20182;-67
2023/06/11 10:54:34;;;;;;;11.57;10.57;;;26.30;56.00;;;;;;5074072;28;20170;-67
2023/06/11 10:57:00;;;;;;;11.93;10.63;;;26.30;56.10;;;;;;5075222;28;20586;-69
2023/06/11 10:59:26;;;;;;;11.88;10.77;;;26.30;56.20;;;;;;5074172;28;20476;-69
2023/06/11 11:01:55;;;;;;;11.38;10.20;;;26.30;56.10;;;;;;5074730;28;20221;-70
2023/06/11 11:04:21;;;;;;;11.80;10.68;;;26.30;56.20;;;;;;5073340;28;20206;-68
2023/06/11 11:06:48;;;;;;;11.77;10.77;;;26.40;56.30;;;;;;5074579;28;20186;-68
2023/06/11 11:09:20;;;;;;;11.00;10.10;;;26.40;56.20;;;;;;5074877;28;20174;-67
2023/06/11 11:11:45;;;;;;;10.77;9.48;;;26.40;56.20;;;;;;5074857;28;20198;-68
2023/06/11 11:14:11;;;;;;;10.45;9.55;;;26.40;56.20;;;;;;5073219;28;20213;-68
2023/06/11 11:16:37;;;;;;;10.38;9.40;;;26.40;56.20;;;;;;5075180;28;20224;-68
2023/06/11 11:19:02;;;;;;;10.48;9.65;;;26.40;56.30;;;;;;5073288;28;20170;-65
2023/06/11 11:21:30;;;;;;;11.27;9.57;;;26.50;56.10;;;;;;5073373;28;20703;-65
2023/06/11 11:23:56;;;;;;;13.95;10.13;;;26.30;56.10;;;;;;5075033;28;20175;-66
2023/06/11 11:26:21;;;;;;;12.68;9.57;;;26.40;55.90;;;;;;5073686;28;20240;-65
2023/06/11 11:28:47;;;;;;;10.75;9.52;;;26.30;55.70;;;;;;5075041;28;20175;-65
2023/06/11 11:31:17;;;;;;;10.80;9.57;;;26.30;55.30;;;;;;5074396;28;20166;-69
2023/06/11 11:33:43;;;;;;;11.30;9.40;;;26.40;55.40;;;;;;5056029;28;20186;-73
2023/06/11 11:36:08;;;;;;;11.52;9.30;;;26.50;55.30;;;;;;5074528;28;20176;-60
2023/06/11 11:38:37;;;;;;;11.50;9.55;;;26.40;55.30;;;;;;5056233;28;20222;-59
2023/06/11 11:41:05;;;;;;;22.60;10.38;;;26.40;55.60;;;;;;5074058;28;20167;-59
2023/06/11 11:43:41;;;;;;;9.82;8.63;;;26.30;55.30;;;;;;5073412;28;20190;-59
2023/06/11 11:46:19;;;;;;;11.05;8.60;;;26.30;55.10;;;;;;5074087;28;20252;-58
2023/06/11 11:48:45;;;;;;;16.67;8.98;;;26.30;55.10;;;;;;5072797;28;20174;-58
2023/06/11 11:51:13;;;;;;;12.40;8.80;;;26.30;55.10;;;;;;5072483;28;20170;-58
2023/06/11 11:53:39;;;;;;;10.73;8.73;;;26.30;55.00;;;;;;5055148;28;20183;-58
2023/06/11 11:56:04;;;;;;;14.07;8.43;;;26.30;54.90;;;;;;5072021;28;20609;-58
2023/06/11 11:58:36;;;;;;;10.23;9.23;;;26.30;54.60;;;;;;5072420;28;20178;-59
2023/06/11 12:01:02;;;;;;;9.55;8.20;;;26.30;54.50;;;;;;5072009;28;20871;-59
2023/06/11 12:03:27;;;;;;;8.98;8.00;;;26.30;54.40;;;;;;5072469;28;20191;-59
2023/06/11 12:06:00;;;;;;;9.93;8.55;;;26.30;54.30;;;;;;5074058;28;20173;-59
2023/06/11 12:08:26;;;;;;;11.38;7.88;;;26.30;54.10;;;;;;5073137;28;20180;-58
2023/06/11 12:10:51;;;;;;;10.30;7.72;;;26.30;54.00;;;;;;5074211;28;20178;-58
2023/06/11 12:13:18;;;;;;;8.80;7.85;;;26.30;53.90;;;;;;5073881;28;20171;-58
2023/06/11 12:15:43;;;;;;;8.18;7.40;;;26.30;53.90;;;;;;5072998;28;20178;-59
2023/06/11 12:18:09;;;;;;;8.77;7.53;;;26.30;53.80;;;;;;5071867;28;20463;-59
2023/06/11 12:20:34;;;;;;;8.63;7.82;;;26.30;53.80;;;;;;5073529;28;20181;-59
2023/06/11 12:23:00;;;;;;;7.82;7.13;;;26.30;53.70;;;;;;5073236;28;20217;-58
2023/06/11 12:25:25;;;;;;;8.57;7.82;;;26.30;53.80;;;;;;5073546;28;20224;-58
2023/06/11 12:27:51;;;;;;;7.68;6.97;;;26.30;53.70;;;;;;5073718;28;20240;-57
2023/06/11 12:30:17;;;;;;;8.52;7.75;;;26.30;53.70;;;;;;5072695;28;20185;-58
2023/06/11 12:32:43;;;;;;;7.40;6.70;;;26.30;53.60;;;;;;5073462;28;20266;-58
2023/06/11 12:35:08;;;;;;;10.38;8.27;;;26.30;53.60;;;;;;5073247;28;20233;-59
2023/06/11 12:37:40;;;;;;;7.43;6.72;;;26.30;53.60;;;;;;5069594;28;20549;-59
2023/06/11 12:40:07;;;;;;;7.60;7.00;;;26.30;53.50;;;;;;5070142;28;20228;-59
2023/06/11 12:42:33;;;;;;;7.35;6.57;;;26.30;53.30;;;;;;5070106;28;20274;-59